createdAt,value
2019-01-13T00:01:22.368Z,7.00
2019-01-13T00:03:51.209Z,7.00
2019-01-13T00:06:20.092Z,7.00
2019-01-13T00:08:48.865Z,7.00
2019-01-13T00:11:17.559Z,7.00
2019-01-13T00:13:46.289Z,7.00
2019-01-13T00:16:15.171Z,7.00
2019-01-13T00:18:44.112Z,7.00
2019-01-13T00:21:12.923Z,7.00
2019-01-13T00:23:41.664Z,7.00
2019-01-13T00:26:10.346Z,7.00
2019-01-13T00:28:39.387Z,7.00
2019-01-13T00:31:08.103Z,7.10
2019-01-13T00:33:36.798Z,7.10
2019-01-13T00:36:05.631Z,7.10
2019-01-13T00:38:34.368Z,7.10
2019-01-13T00:41:03.083Z,7.20
2019-01-13T00:43:31.879Z,7.20
2019-01-13T00:46:00.645Z,7.20
2019-01-13T00:48:29.389Z,7.20
2019-01-13T00:50:58.150Z,7.20
2019-01-13T00:53:26.919Z,7.20
2019-01-13T00:55:55.814Z,7.20
2019-01-13T00:58:24.539Z,7.20
2019-01-13T01:00:53.418Z,7.20
2019-01-13T01:03:22.131Z,7.20
2019-01-13T01:05:50.830Z,7.20
2019-01-13T01:08:19.773Z,7.20
2019-01-13T01:10:48.582Z,7.20
2019-01-13T01:13:17.299Z,7.10
2019-01-13T01:15:46.082Z,7.10
2019-01-13T01:18:14.846Z,7.10
2019-01-13T01:20:43.577Z,7.10
2019-01-13T01:23:12.308Z,7.10
2019-01-13T01:25:41.003Z,7.20
2019-01-13T01:28:09.757Z,7.20
2019-01-13T01:30:38.460Z,7.20
2019-01-13T01:33:07.258Z,7.10
2019-01-13T01:35:35.995Z,7.10
2019-01-13T01:38:04.702Z,7.20
2019-01-13T01:40:33.476Z,7.20
2019-01-13T01:43:02.213Z,7.20
2019-01-13T01:45:30.960Z,7.20
2019-01-13T01:48:00.732Z,7.30
2019-01-13T01:50:29.429Z,7.20
2019-01-13T01:52:58.230Z,7.20
2019-01-13T01:55:26.948Z,7.20
2019-01-13T01:57:55.774Z,7.20
2019-01-13T02:00:24.660Z,7.20
2019-01-13T02:02:53.378Z,7.20
2019-01-13T02:05:22.106Z,7.20
2019-01-13T02:07:50.805Z,7.20
2019-01-13T02:10:20.839Z,7.20
2019-01-13T02:12:50.330Z,7.20
2019-01-13T02:15:21.178Z,7.20
2019-01-13T02:17:49.919Z,7.20
2019-01-13T02:20:18.707Z,7.20
2019-01-13T02:22:47.503Z,7.20
2019-01-13T02:25:17.824Z,7.20
2019-01-13T02:27:46.570Z,7.20
2019-01-13T02:30:19.644Z,7.20
2019-01-13T02:32:48.382Z,7.10
2019-01-13T02:35:17.114Z,7.20
2019-01-13T02:37:46.111Z,7.10
2019-01-13T02:40:16.636Z,7.10
2019-01-13T02:42:46.124Z,7.20
2019-01-13T02:45:17.300Z,7.20
2019-01-13T02:47:46.022Z,7.20
2019-01-13T02:50:14.810Z,7.20
2019-01-13T02:52:43.515Z,7.20
2019-01-13T02:55:12.246Z,7.20
2019-01-13T02:57:40.980Z,7.20
2019-01-13T03:00:12.986Z,7.20
2019-01-13T03:02:41.669Z,7.20
2019-01-13T03:05:10.573Z,7.20
2019-01-13T03:07:39.231Z,7.20
2019-01-13T03:10:11.575Z,7.20
2019-01-13T03:12:40.370Z,7.30
2019-01-13T03:15:09.153Z,7.30
2019-01-13T03:17:37.874Z,7.40
2019-01-13T03:20:07.379Z,7.40
2019-01-13T03:22:36.082Z,7.40
2019-01-13T03:25:05.704Z,7.40
2019-01-13T03:27:34.459Z,7.40
2019-01-13T03:30:03.208Z,7.40
2019-01-13T03:32:32.075Z,7.40
2019-01-13T03:35:00.857Z,7.40
2019-01-13T03:37:29.654Z,7.40
2019-01-13T03:39:58.388Z,7.40
2019-01-13T03:42:27.164Z,7.50
2019-01-13T03:44:55.827Z,7.50
2019-01-13T03:47:24.596Z,7.50
2019-01-13T03:49:53.317Z,7.50
2019-01-13T03:52:22.106Z,7.50
2019-01-13T03:54:50.848Z,7.50
2019-01-13T03:57:19.581Z,7.50
2019-01-13T03:59:48.429Z,7.50
2019-01-13T04:02:17.132Z,7.40
2019-01-13T04:04:45.894Z,7.50
2019-01-13T04:07:14.609Z,7.50
2019-01-13T04:09:43.286Z,7.50
2019-01-13T04:12:11.986Z,7.50
2019-01-13T04:14:40.730Z,7.50
2019-01-13T04:17:09.575Z,7.50
2019-01-13T04:19:38.423Z,7.40
2019-01-13T04:22:07.137Z,7.50
2019-01-13T04:24:35.802Z,7.50
2019-01-13T04:27:04.507Z,7.50
2019-01-13T04:29:33.261Z,7.50
2019-01-13T04:32:01.993Z,7.50
2019-01-13T04:34:30.720Z,7.50
2019-01-13T04:36:59.522Z,7.50
2019-01-13T04:39:28.338Z,7.50
2019-01-13T04:41:57.121Z,7.50
2019-01-13T04:44:25.816Z,7.50
2019-01-13T04:46:54.554Z,7.50
2019-01-13T04:49:23.256Z,7.50
2019-01-13T04:51:52.011Z,7.50
2019-01-13T04:54:20.792Z,7.60
2019-01-13T04:56:49.487Z,7.60
2019-01-13T04:59:18.183Z,7.60
2019-01-13T05:01:46.841Z,7.50
2019-01-13T05:04:15.594Z,7.60
2019-01-13T05:06:44.282Z,7.60
2019-01-13T05:09:12.967Z,7.60
2019-01-13T05:11:41.718Z,7.60
2019-01-13T05:14:10.505Z,7.60
2019-01-13T05:16:39.245Z,7.60
2019-01-13T05:19:07.989Z,7.60
2019-01-13T05:21:36.812Z,7.60
2019-01-13T05:24:05.557Z,7.60
2019-01-13T05:26:34.249Z,7.60
2019-01-13T05:29:02.985Z,7.60
2019-01-13T05:31:31.688Z,7.60
2019-01-13T05:34:00.431Z,7.60
2019-01-13T05:36:29.119Z,7.70
2019-01-13T05:38:57.774Z,7.60
2019-01-13T05:41:26.509Z,7.60
2019-01-13T05:43:55.304Z,7.60
2019-01-13T05:46:24.165Z,7.70
2019-01-13T05:48:53.045Z,7.70
2019-01-13T05:51:22.091Z,7.70
2019-01-13T05:53:50.801Z,7.70
2019-01-13T05:56:19.588Z,7.70
2019-01-13T05:58:48.395Z,7.70
2019-01-13T06:01:17.149Z,7.70
2019-01-13T06:03:45.953Z,7.70
2019-01-13T06:06:14.690Z,7.70
2019-01-13T06:08:43.522Z,7.70
2019-01-13T06:11:12.289Z,7.70
2019-01-13T06:13:41.031Z,7.70
2019-01-13T06:16:09.753Z,7.70
2019-01-13T06:18:38.421Z,7.60
2019-01-13T06:21:07.111Z,7.70
2019-01-13T06:23:35.828Z,7.70
2019-01-13T06:26:04.565Z,7.60
2019-01-13T06:28:33.254Z,7.60
2019-01-13T06:31:01.964Z,7.70
2019-01-13T06:33:30.671Z,7.70
2019-01-13T06:35:59.484Z,7.70
2019-01-13T06:38:28.271Z,7.70
2019-01-13T06:40:56.981Z,7.70
2019-01-13T06:43:25.788Z,7.70
2019-01-13T06:45:54.678Z,7.80
2019-01-13T06:48:23.436Z,7.80
2019-01-13T06:50:52.592Z,7.80
2019-01-13T06:53:21.284Z,7.80
2019-01-13T06:55:49.999Z,7.80
2019-01-13T06:58:18.709Z,7.80
2019-01-13T07:00:47.411Z,7.80
2019-01-13T07:03:16.111Z,7.80
2019-01-13T07:05:44.869Z,7.80
2019-01-13T07:08:13.575Z,7.80
2019-01-13T07:10:42.290Z,7.80
2019-01-13T07:13:10.998Z,7.80
2019-01-13T07:15:39.739Z,7.80
2019-01-13T07:18:08.449Z,7.80
2019-01-13T07:20:37.176Z,7.90
2019-01-13T07:23:05.841Z,7.90
2019-01-13T07:25:34.629Z,7.90
2019-01-13T07:28:03.327Z,7.90
2019-01-13T07:30:31.998Z,7.90
2019-01-13T07:33:00.711Z,7.90
2019-01-13T07:35:38.542Z,8.00
2019-01-13T07:38:07.322Z,8.00
2019-01-13T07:40:36.194Z,8.00
2019-01-13T07:43:04.928Z,8.10
2019-01-13T07:45:33.717Z,8.10
2019-01-13T07:48:02.562Z,8.10
2019-01-13T07:50:31.271Z,8.10
2019-01-13T07:53:00.040Z,8.10
2019-01-13T07:55:28.703Z,8.10
2019-01-13T07:57:57.470Z,8.20
2019-01-13T08:00:31.254Z,8.20
2019-01-13T08:03:00.316Z,8.20
2019-01-13T08:05:29.074Z,8.20
2019-01-13T08:07:57.794Z,8.30
2019-01-13T08:10:26.533Z,8.30
2019-01-13T08:12:55.228Z,8.30
2019-01-13T08:15:23.963Z,8.30
2019-01-13T08:17:52.659Z,8.30
2019-01-13T08:20:26.246Z,8.40
2019-01-13T08:22:55.140Z,8.40
2019-01-13T08:25:23.959Z,8.40
2019-01-13T08:27:52.709Z,8.40
2019-01-13T08:30:21.723Z,8.40
2019-01-13T08:32:50.615Z,8.40
2019-01-13T08:35:19.555Z,8.50
2019-01-13T08:37:48.498Z,8.50
2019-01-13T08:40:19.718Z,8.50
2019-01-13T08:42:52.981Z,8.60
2019-01-13T08:45:21.757Z,8.60
2019-01-13T08:47:50.502Z,8.60
2019-01-13T08:50:23.473Z,8.60
2019-01-13T08:52:52.214Z,8.60
2019-01-13T08:55:22.011Z,8.60
2019-01-13T08:57:50.859Z,8.70
2019-01-13T09:00:24.611Z,8.70
2019-01-13T09:02:53.311Z,8.70
2019-01-13T09:05:22.028Z,8.70
2019-01-13T09:07:50.714Z,8.80
2019-01-13T09:10:19.514Z,8.80
2019-01-13T09:12:48.304Z,8.80
2019-01-13T09:15:18.826Z,8.80
2019-01-13T09:17:47.533Z,8.80
2019-01-13T09:20:21.044Z,8.90
2019-01-13T09:22:49.784Z,8.90
2019-01-13T09:25:18.484Z,8.90
2019-01-13T09:27:47.351Z,8.90
2019-01-13T09:30:18.759Z,8.90
2019-01-13T09:32:47.466Z,9.00
2019-01-13T09:35:16.167Z,9.00
2019-01-13T09:37:44.981Z,9.00
2019-01-13T09:40:15.850Z,9.00
2019-01-13T09:42:44.537Z,9.00
2019-01-13T09:45:13.299Z,9.00
2019-01-13T09:47:41.999Z,9.00
2019-01-13T09:50:12.808Z,9.00
2019-01-13T09:52:41.567Z,9.00
2019-01-13T09:55:11.939Z,9.00
2019-01-13T09:57:40.663Z,9.00
2019-01-13T10:00:25.954Z,9.00
2019-01-13T10:02:56.382Z,9.00
2019-01-13T10:05:25.428Z,9.00
2019-01-13T10:07:54.298Z,9.00
2019-01-13T10:10:23.057Z,9.00
2019-01-13T10:12:51.791Z,9.00
2019-01-13T10:15:21.191Z,9.00
2019-01-13T10:17:49.901Z,9.00
2019-01-13T10:20:18.588Z,9.00
2019-01-13T10:22:47.349Z,9.00
2019-01-13T10:25:16.154Z,9.00
2019-01-13T10:27:44.843Z,8.90
2019-01-13T10:30:16.328Z,8.90
2019-01-13T10:32:46.651Z,8.90
2019-01-13T10:35:15.479Z,9.00
2019-01-13T10:37:44.186Z,9.00
2019-01-13T10:40:15.600Z,9.00
2019-01-13T10:42:44.315Z,9.00
2019-01-13T10:45:13.389Z,9.00
2019-01-13T10:47:42.392Z,9.10
2019-01-13T10:50:14.324Z,9.00
2019-01-13T10:52:43.041Z,9.00
2019-01-13T10:55:11.699Z,9.00
2019-01-13T10:57:40.393Z,9.00
2019-01-13T11:00:13.429Z,9.00
2019-01-13T11:02:42.454Z,9.00
2019-01-13T11:05:11.313Z,9.10
2019-01-13T11:07:40.017Z,9.10
2019-01-13T11:10:09.505Z,9.10
2019-01-13T11:12:38.169Z,9.10
2019-01-13T11:15:07.118Z,9.10
2019-01-13T11:17:35.870Z,9.10
2019-01-13T11:20:06.499Z,9.10
2019-01-13T11:22:35.224Z,9.00
2019-01-13T11:25:04.155Z,9.10
2019-01-13T11:27:32.969Z,9.10
2019-01-13T11:30:01.729Z,9.00
2019-01-13T11:32:30.448Z,9.10
2019-01-13T11:34:59.213Z,9.10
2019-01-13T11:37:27.885Z,9.10
2019-01-13T11:39:56.633Z,9.10
2019-01-13T11:42:25.345Z,9.10
2019-01-13T11:44:54.029Z,9.10
2019-01-13T11:47:22.728Z,9.10
2019-01-13T11:49:51.434Z,9.10
2019-01-13T11:52:20.186Z,9.10
2019-01-13T11:54:48.859Z,9.10
2019-01-13T11:57:17.571Z,9.10
2019-01-13T11:59:46.311Z,9.10
2019-01-13T12:02:15.014Z,9.10
2019-01-13T12:04:43.757Z,9.00
2019-01-13T12:07:12.428Z,9.10
2019-01-13T12:09:41.139Z,9.10
2019-01-13T12:12:09.890Z,9.00
2019-01-13T12:14:38.659Z,9.00
2019-01-13T12:17:07.601Z,9.00
2019-01-13T12:19:36.400Z,9.00
2019-01-13T12:22:05.093Z,9.00
2019-01-13T12:24:33.774Z,9.00
2019-01-13T12:27:02.507Z,9.00
2019-01-13T12:29:31.372Z,9.10
2019-01-13T12:32:00.090Z,9.00
2019-01-13T12:34:30.763Z,9.00
2019-01-13T12:36:59.583Z,9.00
2019-01-13T12:39:28.306Z,9.00
2019-01-13T12:41:57.091Z,9.00
2019-01-13T12:44:25.926Z,9.00
2019-01-13T12:46:54.625Z,9.00
2019-01-13T12:49:23.410Z,9.00
2019-01-13T12:51:52.124Z,9.00
2019-01-13T12:54:20.883Z,9.00
2019-01-13T12:56:49.686Z,9.00
2019-01-13T12:59:18.408Z,9.00
2019-01-13T13:01:47.153Z,9.00
2019-01-13T13:04:15.930Z,9.10
2019-01-13T13:06:44.617Z,9.00
2019-01-13T13:09:13.334Z,9.00
2019-01-13T13:11:42.030Z,9.00
2019-01-13T13:14:10.904Z,9.00
2019-01-13T13:16:39.917Z,9.10
2019-01-13T13:19:08.774Z,9.00
2019-01-13T13:21:37.487Z,9.00
2019-01-13T13:24:06.466Z,9.00
2019-01-13T13:26:35.179Z,9.00
2019-01-13T13:29:03.924Z,9.00
2019-01-13T13:31:32.676Z,9.00
2019-01-13T13:34:01.434Z,9.00
2019-01-13T13:36:30.314Z,8.90
2019-01-13T13:39:15.561Z,8.90
2019-01-13T13:41:38.496Z,8.90
2019-01-13T13:44:28.712Z,8.90
2019-01-13T13:46:57.560Z,8.90
2019-01-13T13:49:26.318Z,8.90
2019-01-13T13:51:55.107Z,8.90
2019-01-13T13:54:23.809Z,8.90
2019-01-13T13:56:52.574Z,9.00
2019-01-13T13:59:21.411Z,9.00
2019-01-13T14:01:50.117Z,8.90
2019-01-13T14:04:18.850Z,9.00
2019-01-13T14:06:47.544Z,9.00
2019-01-13T14:09:16.219Z,8.90
2019-01-13T14:11:44.907Z,8.90
2019-01-13T14:14:13.612Z,8.90
2019-01-13T14:16:42.337Z,9.00
2019-01-13T14:19:11.067Z,9.00
2019-01-13T14:21:39.812Z,8.90
2019-01-13T14:24:08.467Z,9.00
2019-01-13T14:26:37.175Z,8.90
2019-01-13T14:29:05.983Z,8.90
2019-01-13T14:31:34.701Z,8.90
2019-01-13T14:34:04.554Z,8.90
2019-01-13T14:36:33.281Z,8.90
2019-01-13T14:39:02.050Z,8.90
2019-01-13T14:41:30.803Z,8.90
2019-01-13T14:43:59.743Z,8.90
2019-01-13T14:46:28.658Z,8.90
2019-01-13T14:48:57.348Z,8.90
2019-01-13T14:51:26.139Z,8.90
2019-01-13T14:53:54.878Z,8.90
2019-01-13T14:56:23.698Z,8.90
2019-01-13T14:58:52.421Z,8.90
2019-01-13T15:01:21.216Z,8.90
2019-01-13T15:03:49.939Z,8.90
2019-01-13T15:06:18.702Z,8.90
2019-01-13T15:08:47.402Z,8.90
2019-01-13T15:11:16.083Z,8.90
2019-01-13T15:13:44.795Z,8.90
2019-01-13T15:16:13.558Z,8.90
2019-01-13T15:18:42.333Z,8.90
2019-01-13T15:21:11.073Z,8.90
2019-01-13T15:23:39.769Z,9.00
2019-01-13T15:26:09.401Z,9.00
2019-01-13T15:28:38.131Z,9.10
2019-01-13T15:31:06.853Z,9.10
2019-01-13T15:33:35.620Z,9.10
2019-01-13T15:36:04.459Z,9.10
2019-01-13T15:38:33.148Z,9.10
2019-01-13T15:41:01.989Z,9.10
2019-01-13T15:43:33.018Z,9.10
2019-01-13T15:46:01.777Z,9.10
2019-01-13T15:48:32.625Z,9.10
2019-01-13T15:51:01.752Z,9.10
2019-01-13T15:53:30.531Z,9.10
2019-01-13T15:55:59.330Z,9.10
2019-01-13T15:58:28.237Z,9.10
2019-01-13T16:00:57.026Z,9.10
2019-01-13T16:03:28.931Z,9.10
2019-01-13T16:05:57.723Z,9.20
2019-01-13T16:08:26.592Z,9.20
2019-01-13T16:10:55.541Z,9.20
2019-01-13T16:13:24.293Z,9.20
2019-01-13T16:15:53.048Z,9.20
2019-01-13T16:18:21.823Z,9.10
2019-01-13T16:20:50.594Z,9.10
2019-01-13T16:23:19.361Z,9.10
2019-01-13T16:25:51.891Z,9.10
2019-01-13T16:28:20.723Z,9.10
2019-01-13T16:30:49.434Z,9.10
2019-01-13T16:33:18.122Z,9.10
2019-01-13T16:35:46.917Z,9.10
2019-01-13T16:38:15.682Z,9.00
2019-01-13T16:40:44.399Z,9.00
2019-01-13T16:43:13.258Z,9.00
2019-01-13T16:45:42.001Z,8.90
2019-01-13T16:48:10.774Z,8.90
2019-01-13T16:50:39.463Z,8.90
2019-01-13T16:53:08.257Z,8.90
2019-01-13T16:55:37.139Z,8.90
2019-01-13T16:58:05.904Z,8.80
2019-01-13T17:00:34.706Z,8.80
2019-01-13T17:03:03.646Z,8.80
2019-01-13T17:05:32.427Z,8.80
2019-01-13T17:08:01.161Z,8.70
2019-01-13T17:10:29.920Z,8.70
2019-01-13T17:12:58.817Z,8.80
2019-01-13T17:15:32.593Z,8.70
2019-01-13T17:18:01.522Z,8.80
2019-01-13T17:20:30.472Z,8.80
2019-01-13T17:22:59.339Z,8.80
2019-01-13T17:25:28.194Z,8.80
2019-01-13T17:27:57.071Z,8.80
2019-01-13T17:30:27.505Z,8.70
2019-01-13T17:32:56.235Z,8.70
2019-01-13T17:35:24.918Z,8.70
2019-01-13T17:37:53.922Z,8.70
2019-01-13T17:40:23.569Z,8.70
2019-01-13T17:42:52.472Z,8.70
2019-01-13T17:45:23.114Z,8.70
2019-01-13T17:47:52.190Z,8.80
2019-01-13T17:50:22.056Z,8.80
2019-01-13T17:52:50.812Z,8.80
2019-01-13T17:55:21.199Z,8.80
2019-01-13T17:57:49.973Z,8.90
2019-01-13T18:00:24.963Z,8.80
2019-01-13T18:02:53.656Z,8.90
2019-01-13T18:05:22.735Z,8.90
2019-01-13T18:07:51.587Z,8.90
2019-01-13T18:10:20.402Z,8.80
2019-01-13T18:12:49.236Z,8.80
2019-01-13T18:15:17.945Z,8.90
2019-01-13T18:17:50.412Z,8.90
2019-01-13T18:20:19.883Z,8.80
2019-01-13T18:22:48.745Z,8.80
2019-01-13T18:25:17.461Z,8.90
2019-01-13T18:27:46.738Z,8.90
2019-01-13T18:30:18.270Z,8.80
2019-01-13T18:32:51.748Z,8.70
2019-01-13T18:35:29.366Z,8.60
2019-01-13T18:38:00.915Z,8.60
2019-01-13T18:40:29.775Z,8.60
2019-01-13T18:43:01.399Z,8.60
2019-01-13T18:45:30.318Z,8.70
2019-01-13T18:47:59.496Z,8.60
2019-01-13T18:50:30.585Z,8.60
2019-01-13T18:53:03.036Z,8.60
2019-01-13T18:55:42.192Z,8.50
2019-01-13T18:59:06.480Z,8.50
2019-01-13T19:02:45.451Z,8.60
2019-01-13T19:06:04.929Z,8.50
2019-01-13T19:09:07.571Z,8.50
2019-01-13T19:11:59.473Z,8.50
2019-01-13T19:15:07.773Z,8.50
2019-01-13T19:18:02.015Z,8.40
2019-01-13T19:20:29.197Z,8.40
2019-01-13T19:23:17.805Z,8.40
2019-01-13T19:25:53.056Z,8.40
2019-01-13T19:28:33.336Z,8.40
2019-01-13T19:31:02.338Z,8.40
2019-01-13T19:33:31.288Z,8.40
2019-01-13T19:36:00.217Z,8.50
2019-01-13T19:38:29.107Z,8.50
2019-01-13T19:40:58.260Z,8.50
2019-01-13T19:43:27.440Z,8.50
2019-01-13T19:45:56.327Z,8.50
2019-01-13T19:48:25.189Z,8.50
2019-01-13T19:50:54.066Z,8.50
2019-01-13T19:53:22.812Z,8.40
2019-01-13T19:55:51.858Z,8.40
2019-01-13T19:58:20.961Z,8.40
2019-01-13T20:00:49.810Z,8.30
2019-01-13T20:03:18.795Z,8.30
2019-01-13T20:05:47.677Z,8.30
2019-01-13T20:08:16.700Z,8.30
2019-01-13T20:10:45.768Z,8.30
2019-01-13T20:13:14.786Z,8.30
2019-01-13T20:15:43.773Z,8.30
2019-01-13T20:18:12.773Z,8.30
2019-01-13T20:20:41.705Z,8.20
2019-01-13T20:23:10.659Z,8.10
2019-01-13T20:25:42.454Z,8.00
2019-01-13T20:28:13.252Z,7.90
2019-01-13T20:30:42.397Z,7.80
2019-01-13T20:33:13.580Z,7.70
2019-01-13T20:35:42.717Z,7.60
2019-01-13T20:38:11.557Z,7.50
2019-01-13T20:40:41.747Z,7.40
2019-01-13T20:43:11.015Z,7.20
2019-01-13T20:45:43.133Z,6.90
2019-01-13T20:48:11.906Z,6.70
2019-01-13T20:50:40.922Z,6.60
2019-01-13T20:53:12.692Z,6.70
2019-01-13T20:55:41.623Z,6.80
2019-01-13T20:58:10.742Z,6.80
2019-01-13T21:00:39.482Z,6.90
2019-01-13T21:03:08.208Z,7.00
2019-01-13T21:05:36.964Z,6.90
2019-01-13T21:08:05.774Z,6.90
2019-01-13T21:10:34.942Z,6.90
2019-01-13T21:13:03.700Z,6.90
2019-01-13T21:15:34.158Z,7.00
2019-01-13T21:18:03.138Z,7.00
2019-01-13T21:20:33.912Z,7.10
2019-01-13T21:23:04.406Z,7.10
2019-01-13T21:25:33.137Z,7.20
2019-01-13T21:28:03.025Z,7.20
2019-01-13T21:30:32.479Z,7.20
2019-01-13T21:33:01.238Z,7.30
2019-01-13T21:35:34.093Z,7.20
2019-01-13T21:38:00.505Z,7.20
2019-01-13T21:40:29.224Z,7.30
2019-01-13T21:42:58.059Z,7.20
2019-01-13T21:45:26.832Z,7.30
2019-01-13T21:47:55.718Z,7.20
2019-01-13T21:50:24.910Z,7.10
2019-01-13T21:52:53.743Z,7.10
2019-01-13T21:55:22.458Z,7.20
2019-01-13T21:57:51.283Z,7.30
2019-01-13T22:00:24.688Z,7.30
2019-01-13T22:02:53.860Z,7.40
2019-01-13T22:05:23.716Z,7.40
2019-01-13T22:07:52.979Z,7.40
2019-01-13T22:10:22.405Z,7.40
2019-01-13T22:12:51.100Z,7.40
2019-01-13T22:15:20.432Z,7.40
2019-01-13T22:17:49.147Z,7.40
2019-01-13T22:20:19.367Z,7.40
2019-01-13T22:22:48.080Z,7.40
2019-01-13T22:25:16.800Z,7.40
2019-01-13T22:27:45.579Z,7.40
2019-01-13T22:30:16.482Z,7.40
2019-01-13T22:32:45.224Z,7.40
2019-01-13T22:35:13.968Z,7.40
2019-01-13T22:37:42.840Z,7.30
2019-01-13T22:40:13.867Z,7.30
2019-01-13T22:42:42.727Z,7.30
2019-01-13T22:45:13.412Z,7.20
2019-01-13T22:47:42.161Z,7.10
2019-01-13T22:50:11.806Z,7.10
2019-01-13T22:52:40.605Z,7.20
2019-01-13T22:55:09.476Z,7.20
2019-01-13T22:57:38.177Z,7.20
2019-01-13T23:00:33.543Z,7.20
2019-01-13T23:03:02.228Z,7.20
2019-01-13T23:05:31.066Z,7.30
2019-01-13T23:07:59.899Z,7.30
2019-01-13T23:10:28.661Z,7.30
2019-01-13T23:12:57.374Z,7.30
2019-01-13T23:15:26.421Z,7.30
2019-01-13T23:17:55.145Z,7.30
2019-01-13T23:20:23.872Z,7.30
2019-01-13T23:22:52.661Z,7.30
2019-01-13T23:25:21.364Z,7.30
2019-01-13T23:27:50.111Z,7.30
2019-01-13T23:30:18.903Z,7.30
2019-01-13T23:32:47.687Z,7.30
2019-01-13T23:35:16.471Z,7.30
2019-01-13T23:37:45.198Z,7.30
2019-01-13T23:40:13.883Z,7.30
2019-01-13T23:42:42.613Z,7.30
2019-01-13T23:45:11.387Z,7.20
2019-01-13T23:47:40.053Z,7.30
2019-01-13T23:50:08.758Z,7.20
2019-01-13T23:52:37.709Z,7.30
2019-01-13T23:55:06.464Z,7.20
2019-01-13T23:57:35.190Z,7.20
